Time;durP1;ratioP1;P1;durP2;ratioP2;P2;SDS_P1;SDS_P2;PMS_P1;PMS_P2;Temp;Humidity;BMP_temperature;BMP_pressure;BME280_temperature;BME280_humidity;BME280_pressure;Samples;Min_cycle;Max_cycle;Signal;HPM_P1;HPM_P2
2023/07/16 00:01:19;;;;;;;;;;;17.60;99.90;;;;;;5114410;28;19907;-39
2023/07/16 00:03:45;;;;;;;;;;;17.60;99.90;;;;;;5114588;28;19951;-40
2023/07/16 00:06:10;;;;;;;;;;;17.50;99.90;;;;;;5113547;28;20029;-39
2023/07/16 00:08:36;;;;;;;;;;;17.50;99.90;;;;;;5114491;28;19922;-39
2023/07/16 00:11:03;;;;;;;;;;;17.50;99.90;;;;;;5114163;28;20012;-41
2023/07/16 00:13:28;;;;;;;;;;;17.50;99.90;;;;;;5113489;28;19915;-39
2023/07/16 00:15:54;;;;;;;;;;;17.50;99.90;;;;;;5114192;28;20014;-39
2023/07/16 00:18:20;;;;;;;;;;;17.40;99.90;;;;;;5119410;27;19912;-39
2023/07/16 00:20:45;;;;;;;;;;;17.40;99.90;;;;;;5133887;27;20420;-40
2023/07/16 00:23:11;;;;;;;;;;;17.40;99.90;;;;;;5134486;27;20003;-39
2023/07/16 00:25:36;;;;;;;;;;;17.40;99.90;;;;;;5134534;27;19931;-40
2023/07/16 00:28:02;;;;;;;;;;;17.40;99.90;;;;;;5133214;27;19985;-39
2023/07/16 00:30:28;;;;;;;;;;;17.30;99.90;;;;;;5134505;27;20263;-40
2023/07/16 00:32:53;;;;;;;;;;;17.30;99.90;;;;;;5134230;27;19908;-39
2023/07/16 00:35:19;;;;;;;;;;;17.30;99.90;;;;;;5133259;27;19911;-40
2023/07/16 00:37:45;;;;;;;;;;;17.30;99.90;;;;;;5134221;27;20340;-40
2023/07/16 00:40:10;;;;;;;;;;;17.30;99.90;;;;;;5133998;27;19919;-39
2023/07/16 00:42:36;;;;;;;;;;;17.20;99.90;;;;;;5133397;27;19911;-40
2023/07/16 00:45:02;;;;;;;;;;;17.20;99.90;;;;;;5134133;27;19908;-39
2023/07/16 00:47:27;;;;;;;;;;;17.20;99.90;;;;;;5134163;27;19908;-41
2023/07/16 00:49:53;;;;;;;;;;;17.20;99.90;;;;;;5114105;27;19919;-39
2023/07/16 00:52:19;;;;;;;;;;;17.20;99.90;;;;;;5113506;28;19908;-39
2023/07/16 00:54:44;;;;;;;;;;;17.20;99.90;;;;;;5113517;28;19915;-40
2023/07/16 00:57:10;;;;;;;;;;;17.20;99.90;;;;;;5112656;28;19968;-39
2023/07/16 00:59:35;;;;;;;;;;;17.10;99.90;;;;;;5113469;28;19915;-39
2023/07/16 01:02:01;;;;;;;;;;;17.10;99.90;;;;;;5113370;28;19955;-41
2023/07/16 01:04:27;;;;;;;;;;;17.10;99.90;;;;;;5112664;28;20386;-40
2023/07/16 01:06:55;;;;;;;;;;;17.10;99.90;;;;;;5113433;28;19908;-40
2023/07/16 01:09:21;;;;;;;;;;;17.10;99.90;;;;;;5112483;28;19923;-39
2023/07/16 01:11:47;;;;;;;;;;;17.00;99.90;;;;;;5113277;28;19911;-40
2023/07/16 01:14:14;;;;;;;;;;;17.10;99.90;;;;;;5113169;28;19915;-40
2023/07/16 01:16:40;;;;;;;;;;;17.00;99.90;;;;;;5112329;28;19946;-40
2023/07/16 01:19:06;;;;;;;;;;;17.00;99.90;;;;;;5106179;28;20281;-40
2023/07/16 01:21:35;;;;;;;;;;;16.90;99.90;;;;;;5134026;27;19908;-39
2023/07/16 01:24:19;;;;;;;;;;;16.90;99.90;;;;;;5132755;28;19907;-39
2023/07/16 01:26:47;;;;;;;;;;;17.00;99.90;;;;;;5133705;28;19915;-39
2023/07/16 01:29:25;;;;;;;;;;;16.90;99.90;;;;;;5133542;28;19923;-40
2023/07/16 01:31:51;;;;;;;;;;;16.90;99.90;;;;;;5132920;28;19908;-39
2023/07/16 01:34:17;;;;;;;;;;;16.80;99.90;;;;;;5133597;28;20355;-39
2023/07/16 01:36:43;;;;;;;;;;;16.80;99.90;;;;;;5133597;28;19928;-39
2023/07/16 01:39:08;;;;;;;;;;;16.80;99.90;;;;;;5132793;28;19912;-39
2023/07/16 01:41:34;;;;;;;;;;;16.80;99.90;;;;;;5133354;28;19919;-39
2023/07/16 01:43:59;;;;;;;;;;;16.80;99.90;;;;;;5133426;28;19907;-39
2023/07/16 01:46:25;;;;;;;;;;;16.80;99.90;;;;;;5132753;28;19914;-39
2023/07/16 01:48:50;;;;;;;;;;;16.80;99.90;;;;;;5123611;28;19920;-39
2023/07/16 01:51:16;;;;;;;;;;;16.80;99.90;;;;;;5112854;28;19908;-40
2023/07/16 01:53:41;;;;;;;;;;;16.90;99.90;;;;;;5112162;28;19908;-40
2023/07/16 01:56:07;;;;;;;;;;;16.80;99.90;;;;;;5115475;28;19943;-39
2023/07/16 01:58:32;;;;;;;;;;;16.90;99.90;;;;;;5116218;28;19911;-39
2023/07/16 02:00:58;;;;;;;;;;;16.90;99.90;;;;;;5116784;28;19912;-40
2023/07/16 02:03:23;;;;;;;;;;;16.80;99.90;;;;;;5116813;28;19908;-39
2023/07/16 02:05:49;;;;;;;;;;;16.90;99.90;;;;;;5115921;28;20536;-39
2023/07/16 02:08:14;;;;;;;;;;;16.80;99.90;;;;;;5116719;28;19912;-40
2023/07/16 02:10:40;;;;;;;;;;;16.80;99.90;;;;;;5116740;28;20082;-40
2023/07/16 02:13:05;;;;;;;;;;;16.90;99.90;;;;;;5115811;28;19908;-39
2023/07/16 02:15:31;;;;;;;;;;;16.90;99.90;;;;;;5116586;28;19930;-40
2023/07/16 02:17:56;;;;;;;;;;;16.90;99.90;;;;;;5117722;27;19914;-39
2023/07/16 02:20:22;;;;;;;;;;;16.90;99.90;;;;;;5136236;27;19929;-40
2023/07/16 02:22:47;;;;;;;;;;;17.00;99.90;;;;;;5136970;27;19912;-40
2023/07/16 02:25:13;;;;;;;;;;;17.00;99.90;;;;;;5136995;27;19907;-40
2023/07/16 02:27:38;;;;;;;;;;;16.90;99.90;;;;;;5135693;27;20323;-41
2023/07/16 02:30:05;;;;;;;;;;;17.00;99.90;;;;;;5136534;27;19998;-39
2023/07/16 02:32:31;;;;;;;;;;;16.90;99.90;;;;;;5136873;27;19990;-40
2023/07/16 02:34:56;;;;;;;;;;;16.90;99.90;;;;;;5135902;27;20002;-39
2023/07/16 02:37:22;;;;;;;;;;;16.90;99.90;;;;;;5136747;27;19907;-39
2023/07/16 02:39:47;;;;;;;;;;;16.90;99.90;;;;;;5136353;27;19908;-40
2023/07/16 02:42:13;;;;;;;;;;;16.90;99.90;;;;;;5135852;27;19961;-39
2023/07/16 02:44:43;;;;;;;;;;;16.90;99.90;;;;;;5136638;27;19911;-40
2023/07/16 02:47:08;;;;;;;;;;;16.80;99.90;;;;;;5136499;27;19931;-40
2023/07/16 02:49:34;;;;;;;;;;;16.80;99.90;;;;;;5135162;27;20370;-40
2023/07/16 02:51:59;;;;;;;;;;;16.80;99.90;;;;;;5136326;27;19987;-39
2023/07/16 02:54:25;;;;;;;;;;;16.70;99.90;;;;;;5136353;27;19907;-39
2023/07/16 02:56:50;;;;;;;;;;;16.70;99.90;;;;;;5135090;27;19911;-39
2023/07/16 02:59:16;;;;;;;;;;;16.70;99.90;;;;;;5136373;27;20149;-40
2023/07/16 03:01:41;;;;;;;;;;;16.60;99.90;;;;;;5136196;27;19907;-40
2023/07/16 03:04:07;;;;;;;;;;;16.60;99.90;;;;;;5125650;27;19954;-40
2023/07/16 03:06:32;;;;;;;;;;;16.50;99.90;;;;;;5114416;28;19995;-40
2023/07/16 03:08:58;;;;;;;;;;;16.50;99.90;;;;;;5114711;28;20290;-40
2023/07/16 03:11:23;;;;;;;;;;;16.50;99.90;;;;;;5115461;28;19908;-40
2023/07/16 03:13:49;;;;;;;;;;;16.60;99.90;;;;;;5115454;28;19912;-42
2023/07/16 03:16:14;;;;;;;;;;;16.60;99.90;;;;;;5109549;28;19916;-40
2023/07/16 03:18:40;;;;;;;;;;;16.60;99.90;;;;;;5115282;28;20322;-39
2023/07/16 03:21:06;;;;;;;;;;;16.60;99.90;;;;;;5115237;28;20570;-39
2023/07/16 03:23:31;;;;;;;;;;;16.60;99.90;;;;;;5096070;28;19998;-39
2023/07/16 03:25:56;;;;;;;;;;;16.60;99.90;;;;;;5115155;28;19915;-40
2023/07/16 03:28:22;;;;;;;;;;;16.60;99.90;;;;;;5115214;28;19927;-39
2023/07/16 03:30:48;;;;;;;;;;;16.60;99.90;;;;;;5114363;28;19911;-39
2023/07/16 03:33:14;;;;;;;;;;;16.60;99.90;;;;;;5115020;28;20354;-39
2023/07/16 03:35:42;;;;;;;;;;;16.60;99.90;;;;;;5115084;28;19908;-39
2023/07/16 03:38:07;;;;;;;;;;;16.60;99.90;;;;;;5114134;28;19908;-40
2023/07/16 03:40:33;;;;;;;;;;;16.60;99.90;;;;;;5114738;28;19927;-40
2023/07/16 03:42:58;;;;;;;;;;;16.60;99.90;;;;;;5114890;28;19919;-40
2023/07/16 03:45:24;;;;;;;;;;;16.60;99.90;;;;;;5114066;28;19915;-40
2023/07/16 03:47:49;;;;;;;;;;;16.50;99.90;;;;;;5114518;28;19907;-40
2023/07/16 03:50:15;;;;;;;;;;;16.50;99.90;;;;;;5114910;28;19930;-40
2023/07/16 03:52:40;;;;;;;;;;;16.50;99.90;;;;;;5113932;28;20308;-40
2023/07/16 03:55:06;;;;;;;;;;;16.50;99.90;;;;;;5114791;28;19912;-39
2023/07/16 03:57:32;;;;;;;;;;;16.40;99.90;;;;;;5114659;28;19961;-40
2023/07/16 03:59:57;;;;;;;;;;;16.40;99.90;;;;;;5113756;28;19908;-40
2023/07/16 04:02:24;;;;;;;;;;;16.40;99.90;;;;;;5114412;28;19908;-40
2023/07/16 04:04:50;;;;;;;;;;;16.40;99.90;;;;;;5114388;28;19915;-40
2023/07/16 04:07:15;;;;;;;;;;;16.40;99.90;;;;;;5123352;27;20009;-39
2023/07/16 04:09:41;;;;;;;;;;;16.40;99.90;;;;;;5134964;27;20010;-39
2023/07/16 04:12:06;;;;;;;;;;;16.40;99.90;;;;;;5134156;27;19960;-41
2023/07/16 04:14:32;;;;;;;;;;;16.40;99.90;;;;;;5134367;27;19907;-41
2023/07/16 04:16:58;;;;;;;;;;;16.40;99.90;;;;;;5134420;27;19911;-40
2023/07/16 04:19:23;;;;;;;;;;;16.40;99.90;;;;;;5133481;27;19907;-40
2023/07/16 04:21:49;;;;;;;;;;;16.40;99.90;;;;;;5134703;27;19966;-41
2023/07/16 04:24:15;;;;;;;;;;;16.40;99.90;;;;;;5134681;27;19998;-40
2023/07/16 04:26:40;;;;;;;;;;;16.40;99.90;;;;;;5134019;27;20044;-40
2023/07/16 04:29:06;;;;;;;;;;;16.40;99.90;;;;;;5134461;27;19915;-41
2023/07/16 04:31:31;;;;;;;;;;;16.40;99.90;;;;;;5134338;27;19915;-39
2023/07/16 04:33:57;;;;;;;;;;;16.40;99.90;;;;;;5133643;27;19907;-40
2023/07/16 04:36:22;;;;;;;;;;;16.50;99.90;;;;;;5134489;27;19908;-40
2023/07/16 04:38:48;;;;;;;;;;;16.50;99.90;;;;;;5134446;27;19930;-40
2023/07/16 04:41:13;;;;;;;;;;;16.50;99.90;;;;;;5133335;27;20293;-40
2023/07/16 04:43:39;;;;;;;;;;;16.50;99.90;;;;;;5134221;27;20004;-40
2023/07/16 04:46:05;;;;;;;;;;;16.50;99.90;;;;;;5134184;27;19907;-40
2023/07/16 04:48:30;;;;;;;;;;;16.50;99.90;;;;;;5133466;27;19922;-39
2023/07/16 04:50:56;;;;;;;;;;;16.50;99.90;;;;;;5134035;27;19912;-40
2023/07/16 04:53:24;;;;;;;;;;;16.50;99.90;;;;;;5134407;27;19968;-40
2023/07/16 04:55:50;;;;;;;;;;;16.60;99.90;;;;;;5154005;27;19907;-41
2023/07/16 04:58:15;;;;;;;;;;;16.60;99.90;;;;;;5154699;27;19908;-40
2023/07/16 05:00:41;;;;;;;;;;;16.60;99.90;;;;;;5154696;27;19907;-40
2023/07/16 05:03:06;;;;;;;;;;;16.60;99.90;;;;;;5153873;27;19911;-41
2023/07/16 05:05:32;;;;;;;;;;;16.70;99.90;;;;;;5154778;27;19954;-40
2023/07/16 05:07:57;;;;;;;;;;;16.70;99.90;;;;;;5154376;27;19914;-40
2023/07/16 05:10:23;;;;;;;;;;;16.70;99.90;;;;;;5153924;27;19920;-40
2023/07/16 05:12:49;;;;;;;;;;;16.80;99.90;;;;;;5154542;27;19911;-40
2023/07/16 05:15:15;;;;;;;;;;;16.80;99.90;;;;;;5154619;27;20465;-40
2023/07/16 05:17:40;;;;;;;;;;;16.70;99.90;;;;;;5153735;27;20433;-40
2023/07/16 05:20:06;;;;;;;;;;;16.80;99.90;;;;;;5154411;27;20048;-40
2023/07/16 05:22:32;;;;;;;;;;;16.80;99.90;;;;;;5153708;27;19914;-41
2023/07/16 05:24:58;;;;;;;;;;;16.80;99.90;;;;;;5122246;28;19919;-40
2023/07/16 05:27:23;;;;;;;;;;;16.80;99.90;;;;;;5133622;27;19911;-40
2023/07/16 05:29:48;;;;;;;;;;;16.80;99.90;;;;;;5133100;27;20540;-40
2023/07/16 05:32:14;;;;;;;;;;;16.90;99.90;;;;;;5137944;27;19918;-40
2023/07/16 05:34:40;;;;;;;;;;;16.90;99.90;;;;;;5138062;27;20323;-40
2023/07/16 05:37:05;;;;;;;;;;;16.90;99.90;;;;;;5137010;27;20347;-41
2023/07/16 05:39:31;;;;;;;;;;;17.00;99.90;;;;;;5137818;27;19908;-40
2023/07/16 05:41:56;;;;;;;;;;;17.00;99.90;;;;;;5137497;27;19919;-41
2023/07/16 05:44:22;;;;;;;;;;;17.00;99.90;;;;;;5127943;27;19957;-40
2023/07/16 05:46:47;;;;;;;;;;;17.10;99.90;;;;;;5124837;27;20370;-39
2023/07/16 05:49:13;;;;;;;;;;;17.10;99.90;;;;;;5132468;27;19927;-39
2023/07/16 05:51:38;;;;;;;;;;;17.10;99.90;;;;;;5149905;27;19915;-40
2023/07/16 05:54:04;;;;;;;;;;;17.20;99.90;;;;;;5158213;27;20011;-40
2023/07/16 05:56:29;;;;;;;;;;;17.30;99.90;;;;;;5158248;27;19907;-40
2023/07/16 05:58:56;;;;;;;;;;;17.30;99.90;;;;;;5157357;27;19907;-41
2023/07/16 06:01:21;;;;;;;;;;;17.30;99.90;;;;;;5157977;27;19947;-40
2023/07/16 06:03:47;;;;;;;;;;;17.40;99.90;;;;;;5122985;27;19965;-40
2023/07/16 06:06:12;;;;;;;;;;;17.40;99.90;;;;;;5131301;27;19908;-39
2023/07/16 06:08:38;;;;;;;;;;;17.50;99.90;;;;;;5137213;27;19911;-40
2023/07/16 06:11:03;;;;;;;;;;;17.50;99.90;;;;;;5137114;27;20277;-40
2023/07/16 06:13:29;;;;;;;;;;;17.50;99.90;;;;;;5129747;27;20002;-39
2023/07/16 06:15:55;;;;;;;;;;;17.60;99.90;;;;;;5124921;27;19908;-39
2023/07/16 06:18:20;;;;;;;;;;;17.60;99.90;;;;;;5116530;28;19907;-40
2023/07/16 06:20:46;;;;;;;;;;;17.60;99.90;;;;;;5124832;27;20309;-40
2023/07/16 06:23:11;;;;;;;;;;;17.70;99.90;;;;;;5122661;27;19923;-40
2023/07/16 06:25:37;;;;;;;;;;;17.70;99.90;;;;;;5114374;27;20278;-40
2023/07/16 06:28:03;;;;;;;;;;;17.70;99.90;;;;;;5145048;27;20311;-40
2023/07/16 06:30:30;;;;;;;;;;;17.80;99.90;;;;;;5140529;27;19974;-41
2023/07/16 06:32:56;;;;;;;;;;;17.80;99.90;;;;;;5138638;27;19923;-40
2023/07/16 06:35:21;;;;;;;;;;;17.90;99.90;;;;;;5137418;27;19916;-40
2023/07/16 06:37:47;;;;;;;;;;;17.90;99.90;;;;;;5139524;27;19911;-40
2023/07/16 06:40:12;;;;;;;;;;;17.90;99.90;;;;;;5131077;27;19926;-40
2023/07/16 06:42:38;;;;;;;;;;;18.00;99.90;;;;;;5130008;27;20432;-39
2023/07/16 06:45:04;;;;;;;;;;;18.10;99.90;;;;;;5134067;27;19920;-40
2023/07/16 06:47:29;;;;;;;;;;;18.20;99.90;;;;;;5112655;27;19950;-40
2023/07/16 06:49:55;;;;;;;;;;;18.20;99.90;;;;;;5131812;27;19919;-40
2023/07/16 06:52:21;;;;;;;;;;;18.30;99.90;;;;;;5131448;27;19964;-40
2023/07/16 06:54:47;;;;;;;;;;;18.30;99.90;;;;;;5133335;27;19917;-41
2023/07/16 06:57:12;;;;;;;;;;;18.40;99.90;;;;;;5128771;27;20052;-40
2023/07/16 06:59:38;;;;;;;;;;;18.40;99.90;;;;;;5129655;27;19911;-40
2023/07/16 07:02:03;;;;;;;;;;;18.50;99.90;;;;;;5124830;27;19915;-39
2023/07/16 07:04:29;;;;;;;;;;;18.50;99.90;;;;;;5133901;27;19951;-41
2023/07/16 07:06:54;;;;;;;;;;;18.50;99.90;;;;;;5118175;27;19908;-41
2023/07/16 07:09:20;;;;;;;;;;;18.50;99.90;;;;;;5114696;28;20347;-41
2023/07/16 07:11:45;;;;;;;;;;;18.60;99.90;;;;;;5115385;28;19907;-40
2023/07/16 07:14:11;;;;;;;;;;;18.60;99.90;;;;;;5115264;28;19915;-39
2023/07/16 07:16:36;;;;;;;;;;;18.60;99.90;;;;;;5114434;28;19908;-41
2023/07/16 07:19:02;;;;;;;;;;;18.70;99.90;;;;;;5115335;28;20357;-40
2023/07/16 07:21:27;;;;;;;;;;;18.70;99.90;;;;;;5126339;27;20003;-40
2023/07/16 07:23:53;;;;;;;;;;;18.70;99.90;;;;;;5134049;27;19911;-40
2023/07/16 07:26:18;;;;;;;;;;;18.70;99.90;;;;;;5133739;27;19943;-40
2023/07/16 07:28:44;;;;;;;;;;;18.80;99.90;;;;;;5134222;27;20380;-39
2023/07/16 07:31:09;;;;;;;;;;;18.80;99.90;;;;;;5124270;27;19918;-40
2023/07/16 07:33:35;;;;;;;;;;;18.80;99.90;;;;;;5125705;27;20282;-42
2023/07/16 07:36:00;;;;;;;;;;;18.80;99.90;;;;;;5130364;27;20007;-40
2023/07/16 07:38:26;;;;;;;;;;;18.90;99.90;;;;;;5134111;27;20001;-39
2023/07/16 07:40:51;;;;;;;;;;;18.90;99.90;;;;;;5132712;27;19964;-41
2023/07/16 07:43:17;;;;;;;;;;;18.90;99.90;;;;;;5132560;27;20261;-40
2023/07/16 07:45:43;;;;;;;;;;;19.00;99.90;;;;;;5131108;27;19911;-40
2023/07/16 07:48:08;;;;;;;;;;;19.10;99.90;;;;;;5123276;27;20091;-41
2023/07/16 07:50:34;;;;;;;;;;;19.10;99.90;;;;;;5130383;27;20445;-40
2023/07/16 07:52:59;;;;;;;;;;;19.20;99.90;;;;;;5131933;27;19922;-39
2023/07/16 07:55:25;;;;;;;;;;;19.30;99.90;;;;;;5132706;27;20293;-41
2023/07/16 07:57:50;;;;;;;;;;;19.40;99.90;;;;;;5112267;27;19911;-41
2023/07/16 08:00:16;;;;;;;;;;;19.50;99.90;;;;;;5133292;27;19916;-41
2023/07/16 08:02:41;;;;;;;;;;;19.60;99.90;;;;;;5134528;27;19991;-41
2023/07/16 08:05:07;;;;;;;;;;;19.60;99.90;;;;;;5133420;27;19915;-40
2023/07/16 08:07:33;;;;;;;;;;;19.60;99.90;;;;;;5128580;27;19951;-41
2023/07/16 08:09:58;;;;;;;;;;;19.60;99.90;;;;;;5126154;27;19932;-41
2023/07/16 08:12:24;;;;;;;;;;;19.70;99.90;;;;;;5130579;27;19915;-41
2023/07/16 08:14:49;;;;;;;;;;;19.90;99.90;;;;;;5131563;27;19922;-41
2023/07/16 08:17:15;;;;;;;;;;;19.80;99.90;;;;;;5124542;27;19912;-41
2023/07/16 08:19:40;;;;;;;;;;;19.80;99.90;;;;;;5124734;27;19923;-41
2023/07/16 08:22:06;;;;;;;;;;;19.80;99.90;;;;;;5120942;27;19920;-40
2023/07/16 08:24:31;;;;;;;;;;;19.90;99.90;;;;;;5134726;27;19952;-40
2023/07/16 08:26:57;;;;;;;;;;;19.90;99.90;;;;;;5133673;27;19908;-41
2023/07/16 08:29:22;;;;;;;;;;;20.00;99.90;;;;;;5134139;27;19923;-41
2023/07/16 08:31:48;;;;;;;;;;;20.00;99.90;;;;;;5134290;27;19951;-40
2023/07/16 08:34:13;;;;;;;;;;;20.00;99.90;;;;;;5133761;27;20332;-40
2023/07/16 08:36:38;;;;;;;;;;;20.00;99.90;;;;;;5134365;27;19907;-40
2023/07/16 08:39:05;;;;;;;;;;;19.90;99.90;;;;;;5134298;27;20071;-40
2023/07/16 08:41:31;;;;;;;;;;;20.00;99.90;;;;;;5133310;27;20285;-40
2023/07/16 08:43:56;;;;;;;;;;;20.00;99.90;;;;;;5134215;27;19922;-41
2023/07/16 08:46:22;;;;;;;;;;;20.00;99.90;;;;;;5133897;27;19907;-41
2023/07/16 08:48:48;;;;;;;;;;;20.00;99.90;;;;;;5124538;27;19926;-40
2023/07/16 08:51:14;;;;;;;;;;;20.00;99.90;;;;;;5134267;27;19907;-40
2023/07/16 08:53:39;;;;;;;;;;;20.10;99.90;;;;;;5133252;27;19956;-41
2023/07/16 08:56:05;;;;;;;;;;;20.10;99.90;;;;;;5132193;27;19994;-41
2023/07/16 08:58:31;;;;;;;;;;;20.10;99.90;;;;;;5122166;27;20366;-40
2023/07/16 09:00:58;;;;;;;;;;;20.10;99.90;;;;;;5116066;27;19919;-42
2023/07/16 09:03:24;;;;;;;;;;;20.10;99.90;;;;;;5125873;27;20370;-41
2023/07/16 09:05:49;;;;;;;;;;;20.10;99.90;;;;;;5126718;27;20019;-40
2023/07/16 09:08:15;;;;;;;;;;;20.10;99.90;;;;;;5111917;27;19934;-41
2023/07/16 09:10:41;;;;;;;;;;;20.00;99.90;;;;;;5113249;28;19965;-41
2023/07/16 09:13:06;;;;;;;;;;;20.00;99.90;;;;;;5113218;28;19914;-40
2023/07/16 09:15:33;;;;;;;;;;;20.00;99.90;;;;;;5112702;28;20002;-40
2023/07/16 09:17:59;;;;;;;;;;;20.00;99.90;;;;;;5113154;28;19911;-42
2023/07/16 09:20:25;;;;;;;;;;;20.10;99.90;;;;;;5126883;27;20342;-41
2023/07/16 09:22:53;;;;;;;;;;;20.10;99.90;;;;;;5132864;27;20287;-41
2023/07/16 09:25:19;;;;;;;;;;;20.20;99.90;;;;;;5132441;28;19907;-40
2023/07/16 09:27:48;;;;;;;;;;;20.30;99.90;;;;;;5133740;28;19913;-41
2023/07/16 09:30:16;;;;;;;;;;;20.30;99.90;;;;;;5122748;28;19974;-40
2023/07/16 09:32:41;;;;;;;;;;;20.20;99.90;;;;;;5121648;28;19907;-41
2023/07/16 09:35:09;;;;;;;;;;;20.30;99.90;;;;;;5123816;28;20071;-40
2023/07/16 09:37:36;;;;;;;;;;;20.30;99.90;;;;;;5126937;28;19908;-40
2023/07/16 09:40:03;;;;;;;;;;;20.30;99.90;;;;;;5121313;28;19945;-41
2023/07/16 09:42:29;;;;;;;;;;;20.30;99.90;;;;;;5120285;28;19918;-41
2023/07/16 09:44:55;;;;;;;;;;;20.30;99.90;;;;;;5118130;28;19911;-41
2023/07/16 09:47:21;;;;;;;;;;;20.30;99.90;;;;;;5123405;28;19985;-40
2023/07/16 09:49:47;;;;;;;;;;;20.30;99.90;;;;;;5118558;28;19927;-41
2023/07/16 09:52:14;;;;;;;;;;;20.30;99.90;;;;;;5125327;28;19907;-42
2023/07/16 09:54:40;;;;;;;;;;;20.10;99.90;;;;;;5112152;28;20382;-40
2023/07/16 09:57:06;;;;;;;;;;;20.00;99.90;;;;;;5121152;28;19920;-41
2023/07/16 09:59:33;;;;;;;;;;;20.00;99.90;;;;;;5118108;28;19911;-40
2023/07/16 10:01:59;;;;;;;;;;;20.10;99.90;;;;;;5119921;28;19911;-41
2023/07/16 10:04:24;;;;;;;;;;;20.10;99.90;;;;;;5128116;27;19912;-41
2023/07/16 10:06:50;;;;;;;;;;;20.10;99.90;;;;;;5133406;27;19916;-43
2023/07/16 10:09:31;;;;;;;;;;;20.10;99.90;;;;;;5118610;27;19979;-42
2023/07/16 10:12:07;;;;;;;;;;;20.30;99.90;;;;;;5116901;28;20011;-40
2023/07/16 10:14:38;;;;;;;;;;;20.50;99.90;;;;;;5123166;28;19926;-40
2023/07/16 10:17:05;;;;;;;;;;;20.60;99.90;;;;;;5119540;27;19999;-40
2023/07/16 10:19:30;;;;;;;;;;;20.80;99.90;;;;;;5127739;27;19922;-41
2023/07/16 10:21:56;;;;;;;;;;;20.90;99.90;;;;;;5129880;27;19916;-40
2023/07/16 10:24:27;;;;;;;;;;;20.90;99.90;;;;;;5119224;27;19912;-42
2023/07/16 10:26:52;;;;;;;;;;;20.90;99.90;;;;;;5123722;27;19946;-41
2023/07/16 10:29:18;;;;;;;;;;;21.00;99.90;;;;;;5125153;27;19951;-41
2023/07/16 10:31:44;;;;;;;;;;;21.00;99.90;;;;;;5126936;27;19919;-42
2023/07/16 10:34:11;;;;;;;;;;;21.20;99.90;;;;;;5128624;27;20273;-41
2023/07/16 10:36:37;;;;;;;;;;;21.10;99.90;;;;;;5125925;27;19965;-40
2023/07/16 10:39:03;;;;;;;;;;;21.00;99.90;;;;;;5127474;27;19911;-41
2023/07/16 10:41:30;;;;;;;;;;;20.80;99.90;;;;;;5132220;27;20422;-42
2023/07/16 10:43:56;;;;;;;;;;;20.60;99.90;;;;;;5123787;27;20254;-41
2023/07/16 10:46:22;;;;;;;;;;;20.40;99.90;;;;;;5121615;27;19915;-42
2023/07/16 10:48:48;;;;;;;;;;;20.30;99.90;;;;;;5124308;27;19919;-41
2023/07/16 10:51:14;;;;;;;;;;;20.20;99.90;;;;;;5124674;27;20324;-41
2023/07/16 10:53:43;;;;;;;;;;;20.10;99.90;;;;;;5136269;27;19930;-42
2023/07/16 10:56:09;;;;;;;;;;;20.00;99.90;;;;;;5124674;27;19918;-41
2023/07/16 10:58:36;;;;;;;;;;;20.10;99.90;;;;;;5132014;27;19912;-40
2023/07/16 11:01:01;;;;;;;;;;;20.10;99.90;;;;;;5141681;27;19914;-43
2023/07/16 11:03:27;;;;;;;;;;;20.40;99.90;;;;;;5134652;27;19911;-41
2023/07/16 11:05:53;;;;;;;;;;;20.50;99.90;;;;;;5130924;27;19912;-41
2023/07/16 11:08:22;;;;;;;;;;;20.60;99.90;;;;;;5134954;27;19915;-41
2023/07/16 11:10:52;;;;;;;;;;;20.90;99.90;;;;;;5135585;27;19916;-41
2023/07/16 11:13:18;;;;;;;;;;;21.20;99.90;;;;;;5135779;27;20006;-41
2023/07/16 11:15:43;;;;;;;;;;;21.40;99.90;;;;;;5134987;27;20014;-42
2023/07/16 11:18:09;;;;;;;;;;;21.60;99.90;;;;;;5134496;27;19915;-42
2023/07/16 11:20:34;;;;;;;;;;;21.70;99.90;;;;;;5135832;27;19907;-41
2023/07/16 11:23:01;;;;;;;;;;;21.80;99.90;;;;;;5133940;27;19955;-42
2023/07/16 11:25:27;;;;;;;;;;;21.80;99.90;;;;;;5134397;27;19907;-42
2023/07/16 11:27:54;;;;;;;;;;;21.90;99.90;;;;;;5133082;27;19921;-41
2023/07/16 11:30:22;;;;;;;;;;;21.90;99.90;;;;;;5116489;27;20351;-43
2023/07/16 11:32:48;;;;;;;;;;;22.00;99.90;;;;;;5134224;27;19911;-41
2023/07/16 11:35:17;;;;;;;;;;;21.90;99.90;;;;;;5133620;27;19988;-41
2023/07/16 11:37:43;;;;;;;;;;;21.70;99.90;;;;;;5134622;27;19919;-42
2023/07/16 11:40:10;;;;;;;;;;;21.70;99.90;;;;;;5134408;27;20032;-42
2023/07/16 11:42:37;;;;;;;;;;;21.60;99.90;;;;;;5133744;27;19972;-41
2023/07/16 11:45:03;;;;;;;;;;;21.50;99.90;;;;;;5134347;27;19994;-41
2023/07/16 11:47:29;;;;;;;;;;;21.50;99.90;;;;;;5134551;27;19919;-42
2023/07/16 11:49:55;;;;;;;;;;;21.40;99.90;;;;;;5133490;27;19915;-41
2023/07/16 11:52:21;;;;;;;;;;;21.30;99.90;;;;;;5131391;27;19920;-41
2023/07/16 11:54:49;;;;;;;;;;;21.10;99.90;;;;;;5132977;27;20216;-40
2023/07/16 11:57:14;;;;;;;;;;;21.00;99.90;;;;;;5131772;27;19912;-42
2023/07/16 11:59:40;;;;;;;;;;;20.90;99.90;;;;;;5122149;27;20412;-41
2023/07/16 12:02:05;;;;;;;;;;;20.80;99.90;;;;;;5120350;27;20369;-41
2023/07/16 12:04:31;;;;;;;;;;;20.70;99.90;;;;;;5131949;27;19971;-42
2023/07/16 12:06:56;;;;;;;;;;;20.70;99.90;;;;;;5128523;27;19925;-42
2023/07/16 12:09:22;;;;;;;;;;;20.70;99.90;;;;;;5135176;27;20452;-40
2023/07/16 12:11:47;;;;;;;;;;;20.80;99.90;;;;;;5140430;27;19912;-41
2023/07/16 12:14:13;;;;;;;;;;;21.10;99.90;;;;;;5142985;27;19930;-42
2023/07/16 12:16:38;;;;;;;;;;;21.40;99.90;;;;;;5141649;27;20014;-43
2023/07/16 12:19:05;;;;;;;;;;;21.80;99.90;;;;;;5144135;27;20381;-43
2023/07/16 12:21:30;;;;;;;;;;;22.00;99.90;;;;;;5140556;27;19951;-42
2023/07/16 12:23:56;;;;;;;;;;;22.00;99.90;;;;;;5143037;27;19957;-41
2023/07/16 12:26:21;;;;;;;;;;;22.00;99.90;;;;;;5141612;27;19912;-41
2023/07/16 12:28:47;;;;;;;;;;;22.00;99.90;;;;;;5134172;27;19918;-42
2023/07/16 12:31:13;;;;;;;;;;;22.00;99.90;;;;;;5131427;27;19968;-41
2023/07/16 12:33:39;;;;;;;;;;;22.00;99.90;;;;;;5113240;28;19915;-41
2023/07/16 12:36:04;;;;;;;;;;;22.00;99.90;;;;;;5153046;27;19912;-41
2023/07/16 12:38:30;;;;;;;;;;;21.80;99.90;;;;;;5154488;27;19964;-42
2023/07/16 12:40:55;;;;;;;;;;;21.60;99.90;;;;;;5154471;27;20322;-42
2023/07/16 12:43:21;;;;;;;;;;;21.40;99.90;;;;;;5155023;27;19981;-42
2023/07/16 12:45:46;;;;;;;;;;;21.20;99.90;;;;;;5152375;27;19911;-42
2023/07/16 12:48:12;;;;;;;;;;;21.10;99.90;;;;;;5133376;27;19918;-40
2023/07/16 12:50:37;;;;;;;;;;;21.00;99.90;;;;;;5118301;27;19912;-42
2023/07/16 12:53:03;;;;;;;;;;;21.10;99.90;;;;;;5142495;27;20418;-42
2023/07/16 12:55:29;;;;;;;;;;;21.10;99.90;;;;;;5146553;27;19919;-41
2023/07/16 12:57:54;;;;;;;;;;;21.40;99.90;;;;;;5146483;27;19911;-40
2023/07/16 13:00:20;;;;;;;;;;;21.40;99.90;;;;;;5145912;27;19960;-43
2023/07/16 13:02:45;;;;;;;;;;;21.40;99.90;;;;;;5133954;27;19981;-42
2023/07/16 13:05:11;;;;;;;;;;;21.40;99.90;;;;;;5150841;27;19964;-41
2023/07/16 13:07:36;;;;;;;;;;;21.40;99.90;;;;;;5133240;27;19911;-41
2023/07/16 13:10:02;;;;;;;;;;;21.40;99.90;;;;;;5133788;27;20380;-41
2023/07/16 13:12:27;;;;;;;;;;;21.50;99.90;;;;;;5133591;27;19908;-42
2023/07/16 13:14:53;;;;;;;;;;;21.60;99.90;;;;;;5132926;27;20346;-43
2023/07/16 13:17:19;;;;;;;;;;;21.60;99.90;;;;;;5130865;27;19915;-42
2023/07/16 13:19:45;;;;;;;;;;;21.70;99.90;;;;;;5133614;27;19912;-42
2023/07/16 13:22:10;;;;;;;;;;;21.60;99.90;;;;;;5132932;27;19911;-42
2023/07/16 13:24:36;;;;;;;;;;;21.50;99.90;;;;;;5133824;27;20079;-41
2023/07/16 13:27:02;;;;;;;;;;;21.40;99.90;;;;;;5133497;27;20049;-42
2023/07/16 13:29:27;;;;;;;;;;;21.30;99.90;;;;;;5130409;28;20396;-42
2023/07/16 13:31:53;;;;;;;;;;;21.40;99.90;;;;;;5119931;27;19912;-43
2023/07/16 13:34:18;;;;;;;;;;;22.00;99.90;;;;;;5118493;28;20278;-43
2023/07/16 13:36:44;;;;;;;;;;;22.20;99.90;;;;;;5118717;28;19982;-43
2023/07/16 13:39:09;;;;;;;;;;;22.20;99.90;;;;;;5117485;28;20483;-42
2023/07/16 13:41:36;;;;;;;;;;;22.20;99.90;;;;;;5118227;28;19920;-41
2023/07/16 13:44:01;;;;;;;;;;;22.10;99.90;;;;;;5123935;28;19980;-42
2023/07/16 13:46:26;;;;;;;;;;;22.10;99.90;;;;;;5119868;28;20373;-42
2023/07/16 13:48:52;;;;;;;;;;;22.30;99.90;;;;;;5117144;28;20010;-45
2023/07/16 13:51:17;;;;;;;;;;;22.80;99.90;;;;;;5114531;28;20389;-41
2023/07/16 13:53:43;;;;;;;;;;;23.00;99.90;;;;;;5119283;27;19972;-41
2023/07/16 13:56:08;;;;;;;;;;;23.50;99.90;;;;;;5123571;27;20285;-44
2023/07/16 13:58:34;;;;;;;;;;;23.40;99.90;;;;;;5120905;27;19911;-47
2023/07/16 14:00:59;;;;;;;;;;;23.20;99.90;;;;;;5117386;28;19931;-43
2023/07/16 14:03:25;;;;;;;;;;;23.00;99.90;;;;;;5154087;27;19964;-42
2023/07/16 14:05:51;;;;;;;;;;;22.80;99.90;;;;;;5158824;27;20227;-45
2023/07/16 14:08:16;;;;;;;;;;;22.60;99.90;;;;;;5149827;27;20006;-43